Latest Weather Observations for Cape Byron

IDN60801

Issued at 11:05 am EDT Sunday 26 October 2014 (issued every 30 minutes, with the page automatically refreshed every 10 minutes)

About weather observations | Map of weather stations | Latest weather observations for NSW | Other Formats
Station Details ID: 058216 Name: CAPE BYRON AWS Lat: -28.64 Lon: 153.64 Height: 95.0 m
Data from the previous 72 hours. | See also: Recent months at Cape Byron
Date/Time
EDT
Temp
°C
App
Temp
°C
Dew
Point
Rel
Hum
%
Delta-T
°C
Wind Press
QNH
hPa
Press
MSL
hPa
Rain
since 9 am
mm
Dir
 
Spd
km/h
Gust
km/h
Spd
kts
Gust
kts
26/11:00am 22.9 19.1 18.2 75 3.0 N 35 50 19 27 1015.3 1015.0 0.0
26/10:30am 22.6 18.9 18.4 77 2.6 N 35 46 19 25 1015.6 1015.3 0.0
26/10:00am 22.2 18.9 18.0 77 2.6 N 32 43 17 23 1015.8 1015.5 0.0
26/09:30am 22.1 19.0 17.5 75 2.9 N 30 39 16 21 1015.8 1015.5 0.0
26/09:00am 21.7 19.7 17.3 76 2.7 N 24 33 13 18 1016.1 1015.8 0.0
26/08:30am 21.2 19.5 17.2 78 2.5 N 22 30 12 16 1016.1 1015.8 0.0
26/08:00am 20.6 19.2 17.0 80 2.2 N 20 26 11 14 1015.8 1015.5 0.0
26/07:30am 20.2 19.0 17.0 82 2.0 N 19 28 10 15 1015.8 1015.5 0.0
26/07:00am 20.0 18.3 17.2 84 1.7 N 22 28 12 15 1015.6 1015.3 0.0
26/06:30am 20.2 18.4 17.8 86 1.5 N 24 32 13 17 1015.3 1015.0 0.0
26/06:00am 20.2 17.5 17.6 85 1.6 N 28 37 15 20 1015.0 1014.7 0.0
26/05:30am 20.3 17.7 17.7 85 1.6 N 28 39 15 21 1014.9 1014.6 0.0
26/05:00am 20.3 18.0 17.7 85 1.6 N 26 39 14 21 1015.1 1014.8 0.0
26/04:30am 20.3 18.5 17.9 86 1.5 N 24 33 13 18 1015.1 1014.8 0.0
26/04:00am 20.2 18.0 17.8 86 1.5 N 26 35 14 19 1014.8 1014.5 0.0
26/03:30am 20.3 18.5 17.9 86 1.5 N 24 32 13 17 1015.2 1014.9 0.0
26/03:00am 20.3 19.0 18.1 87 1.4 N 22 30 12 16 1015.2 1014.9 0.0
26/02:30am 20.4 18.7 18.0 86 1.5 N 24 35 13 19 1015.2 1014.9 0.0
26/02:00am 20.3 18.6 18.1 87 1.4 N 24 30 13 16 1015.6 1015.3 0.0
26/01:30am 20.2 18.1 18.0 87 1.4 N 26 33 14 18 1015.9 1015.6 0.0
26/01:00am 20.4 18.0 18.2 87 1.4 N 28 35 15 19 1016.3 1015.9 0.0
26/12:30am 20.4 17.9 18.0 86 1.5 N 28 35 15 19 1016.5 1016.1 0.0
26/12:00am 20.4 18.0 18.2 87 1.4 N 28 37 15 20 1016.4 1016.0 0.0
 
Date/Time
EDT
Temp
°C
App
Temp
°C
Dew
Point
Rel
Hum
%
Delta-T
°C
Wind Press
QNH
hPa
Press
MSL
hPa
Rain
since 9 am
mm
Dir
 
Spd
km/h
Gust
km/h
Spd
kts
Gust
kts
25/11:30pm 20.5 18.5 18.3 87 1.4 N 26 33 14 18 1016.5 1016.1 0.0
25/11:00pm 20.6 18.6 18.2 86 1.5 N 26 33 14 18 1016.7 1016.3 0.0
25/10:30pm 20.6 18.2 18.2 86 1.5 N 28 35 15 19 1016.6 1016.2 0.0
25/10:00pm 20.6 18.2 18.2 86 1.5 N 28 37 15 20 1016.6 1016.2 0.0
25/09:30pm 20.6 18.6 18.4 87 1.4 N 26 35 14 19 1016.6 1016.2 0.0
25/09:00pm 20.7 18.3 18.3 86 1.5 N 28 41 15 22 1016.5 1016.1 0.0
25/08:30pm 20.9 18.5 18.3 85 1.6 N 28 39 15 21 1016.4 1016.0 0.0
25/08:00pm 20.9 18.1 18.3 85 1.6 N 30 41 16 22 1016.0 1015.7 0.0
25/07:30pm 21.0 18.1 18.0 83 1.9 N 30 39 16 21 1015.7 1015.4 0.0
25/07:00pm 21.3 18.0 17.9 81 2.1 N 32 41 17 22 1015.5 1015.2 0.0
25/06:30pm 21.3 17.9 17.7 80 2.2 N 32 44 17 24 1015.1 1014.8 0.0
25/06:00pm 21.5 17.5 17.7 79 2.4 N 35 48 19 26 1014.9 1014.6 0.0
25/05:35pm 21.9 18.1 17.3 75 2.8 NNE 33 52 18 28 1014.4 1014.1 0.0
25/05:30pm 22.1 18.4 17.5 75 2.9 N 33 46 18 25 1014.5 1014.2 0.0
25/05:00pm 22.3 18.4 17.0 72 3.3 NNE 33 48 18 26 1014.2 1013.9 0.0
25/04:37pm 22.3 18.1 17.2 73 3.1 NNE 35 54 19 29 1014.0 1013.7 0.0
25/04:30pm 22.3 18.0 17.0 72 3.3 NNE 35 50 19 27 1014.0 1013.7 0.0
25/04:02pm 22.4 18.1 16.9 71 3.4 N 35 54 19 29 1013.9 1013.6 0.0
25/04:00pm 22.3 18.0 16.8 71 3.4 N 35 52 19 28 1013.9 1013.6 0.0
25/03:38pm 22.5 17.5 17.0 71 3.4 N 39 57 21 31 1013.8 1013.5 0.0
25/03:30pm 22.5 17.5 17.0 71 3.4 N 39 52 21 28 1014.0 1013.7 0.0
25/03:00pm 22.5 16.7 17.0 71 3.4 N 43 56 23 30 1014.3 1014.0 0.0
25/02:30pm 22.7 17.3 16.9 70 3.6 N 41 57 22 31 1014.9 1014.6 0.0
25/02:01pm 22.6 17.0 16.6 69 3.7 N 41 61 22 33 1015.0 1014.7 0.0
25/02:00pm 22.6 17.0 16.6 69 3.7 N 41 56 22 30 1015.1 1014.8 0.0
25/01:30pm 22.7 17.3 16.9 70 3.6 N 41 57 22 31 1015.3 1015.0 0.0
25/01:10pm 22.8 16.8 16.4 67 3.9 N 43 61 23 33 1015.8 1015.5 0.0
25/01:00pm 22.7 16.8 16.7 69 3.7 N 43 56 23 30 1016.1 1015.8 0.0
25/12:35pm 22.4 16.7 16.2 68 3.8 N 41 59 22 32 1016.4 1016.0 0.0
25/12:30pm 22.5 16.8 16.3 68 3.8 N 41 56 22 30 1016.5 1016.1 0.0
25/12:00pm 22.4 16.3 16.2 68 3.8 N 43 61 23 33 1017.0 1016.6 0.0
25/11:30am 22.4 17.4 16.0 67 3.9 N 37 56 20 30 1017.6 1017.3 0.0
25/11:00am 22.2 18.0 15.8 67 3.9 NNE 32 48 17 26 1018.2 1017.9 0.0
25/10:30am 21.8 16.7 15.9 69 3.6 N 37 50 20 27 1018.6 1018.3 0.0
25/10:00am 21.8 17.2 16.1 70 3.4 N 35 48 19 26 1019.1 1018.8 0.0
25/09:30am 21.7 17.3 15.1 66 3.9 N 32 46 17 25 1019.2 1018.9 0.0
25/09:00am 21.4 17.1 15.5 69 3.5 N 32 43 17 23 1019.2 1018.9 0.0
25/08:30am 20.8 16.6 14.7 68 3.6 N 30 39 16 21 1019.3 1019.0 0.0
25/08:00am 20.4 16.1 14.5 69 3.4 N 30 41 16 22 1019.2 1018.9 0.0
25/07:30am 20.1 15.6 14.9 72 3.1 N 32 46 17 25 1019.2 1018.9 0.0
25/07:00am 19.7 15.2 14.9 74 2.8 N 32 44 17 24 1018.9 1018.6 0.0
25/06:30am 19.5 14.9 15.0 75 2.6 N 33 44 18 24 1018.5 1018.2 0.0
25/06:00am 19.4 15.0 15.1 76 2.5 N 32 41 17 22 1018.3 1018.0 0.0
25/05:30am 19.3 14.9 15.2 77 2.4 N 32 43 17 23 1017.9 1017.6 0.0
25/05:00am 19.3 14.8 15.0 76 2.5 N 32 43 17 23 1017.7 1017.4 0.0
25/04:30am 19.3 15.7 15.2 77 2.4 N 28 39 15 21 1018.1 1017.8 0.0
25/04:00am 19.3 15.6 15.0 76 2.5 N 28 41 15 22 1017.9 1017.6 0.0
25/03:30am 19.4 16.2 15.3 77 2.4 N 26 41 14 22 1018.0 1017.7 0.0
25/03:00am 19.5 16.3 15.2 76 2.5 N 26 41 14 22 1018.0 1017.7 0.0
25/02:30am 19.5 15.5 15.2 76 2.5 N 30 41 16 22 1018.2 1017.9 0.0
25/02:08am 19.4 15.7 15.1 76 2.5 N 28 46 15 25 1018.6 1018.3 0.0
25/02:00am 19.5 15.8 15.0 75 2.6 N 28 39 15 21 1018.9 1018.6 0.0
25/01:30am 19.6 15.3 15.3 76 2.5 N 32 43 17 23 1019.0 1018.7 0.0
25/01:12am 19.7 15.3 15.1 75 2.7 N 32 50 17 27 1019.3 1019.0 0.0
25/01:00am 19.8 15.2 15.2 75 2.7 N 33 44 18 24 1019.4 1019.1 0.0
25/12:30am 19.8 16.5 15.0 74 2.8 N 26 41 14 22 1020.6 1020.3 0.0
25/12:00am 20.0 17.3 15.6 76 2.6 N 24 41 13 22 1021.1 1020.8 0.0
 
Date/Time
EDT
Temp
°C
App
Temp
°C
Dew
Point
Rel
Hum
%
Delta-T
°C
Wind Press
QNH
hPa
Press
MSL
hPa
Rain
since 9 am
mm
Dir
 
Spd
km/h
Gust
km/h
Spd
kts
Gust
kts
24/11:30pm 20.4 16.0 15.6 74 2.9 N 33 44 18 24 1021.2 1020.9 0.0
24/11:00pm 20.4 15.6 15.6 74 2.9 N 35 48 19 26 1021.3 1021.0 0.0
24/10:30pm 20.5 15.7 15.7 74 2.9 N 35 50 19 27 1021.4 1021.1 0.0
24/10:00pm 20.4 15.6 15.6 74 2.9 N 35 46 19 25 1021.6 1021.3 0.0
24/09:30pm 20.5 16.1 15.7 74 2.9 N 33 48 18 26 1021.5 1021.2 0.0
24/09:00pm 20.4 16.0 15.6 74 2.9 N 33 46 18 25 1021.4 1021.1 0.0
24/08:30pm 20.3 16.0 15.5 74 2.9 NNE 32 44 17 24 1021.1 1020.8 0.0
24/08:00pm 20.4 16.2 15.6 74 2.9 NNE 32 46 17 25 1021.0 1020.7 0.0
24/07:30pm 20.3 16.4 15.5 74 2.9 NNE 30 43 16 23 1021.0 1020.7 0.0
24/07:00pm 20.4 16.9 15.4 73 3.0 NNE 28 46 15 25 1020.6 1020.3 0.0
24/06:59pm 20.3 16.7 15.3 73 3.0 NNE 28 46 15 25 1020.6 1020.3 0.0
24/06:30pm 20.6 17.0 15.2 71 3.2 NNE 28 39 15 21 1020.5 1020.2 0.0
24/06:00pm 21.1 17.6 15.4 70 3.4 NE 28 37 15 20 1020.2 1019.9 0.0
24/05:46pm 21.3 17.8 15.6 70 3.4 NE 28 46 15 25 1019.8 1019.5 0.0
24/05:30pm 21.5 17.5 15.1 67 3.8 NNE 30 43 16 23 1019.9 1019.6 0.0
24/05:00pm 21.9 18.4 14.5 63 4.4 NNE 26 39 14 21 1019.9 1019.6 0.0
24/04:30pm 22.2 - 14.8 63 4.4 - - - - - 1020.0 - -
24/04:00pm 22.6 - 15.0 62 4.5 - - - - - 1020.1 1019.8 -
24/03:30pm 22.9 17.6 15.2 62 4.6 ESE 37 44 20 24 1020.5 1020.2 0.0
24/03:24pm 22.7 16.8 14.8 61 4.7 ESE 39 44 21 24 1020.6 1020.3 0.0
24/03:00pm 23.0 17.5 14.8 60 4.9 ENE 37 44 20 24 1020.6 1020.3 0.0
24/02:30pm 23.7 18.9 15.5 60 5.0 ENE 35 43 19 23 1020.8 1020.5 0.0
24/02:00pm 23.6 19.3 15.4 60 4.9 NE 32 39 17 21 1021.1 1020.8 0.0
24/01:47pm 23.3 17.9 15.1 60 4.9 ENE 37 43 20 23 1021.1 1020.8 0.0
24/01:30pm 23.9 19.6 15.9 61 4.9 NNE 33 43 18 23 1021.3 1021.0 0.0
24/01:00pm 24.0 19.7 15.8 60 5.0 NNE 33 43 18 23 1021.7 1021.4 0.0
24/12:30pm 23.9 19.6 15.9 61 4.9 NNE 33 41 18 22 1021.8 1021.5 0.0
24/12:00pm 23.2 19.9 15.0 60 4.9 NNE 26 37 14 20 1021.9 1021.6 0.0
24/11:30am 23.0 20.3 14.6 59 5.0 NNE 22 32 12 17 1022.5 1022.2 0.0
24/11:00am 22.8 20.1 14.6 60 4.8 NNE 22 33 12 18 1022.5 1022.2 0.0
24/10:30am 22.6 20.4 14.4 60 4.8 NNE 19 28 10 15 1022.9 1022.6 0.0
24/10:00am 22.4 20.0 14.5 61 4.6 N 20 26 11 14 1023.0 1022.7 0.0
24/09:30am 21.8 20.1 14.7 64 4.2 N 17 24 9 13 1022.9 1022.6 0.0
24/09:00am 20.9 19.2 14.8 68 3.6 N 17 22 9 12 1022.9 1022.6 0.0
24/08:30am 20.2 18.1 14.8 71 3.2 N 19 28 10 15 1022.6 1022.3 0.0
24/08:00am 19.7 18.1 14.9 74 2.8 N 17 26 9 14 1022.6 1022.3 0.0
24/07:30am 19.3 17.3 15.0 76 2.5 N 19 24 10 13 1022.4 1022.1 0.0
24/07:00am 18.9 17.2 14.6 76 2.5 N 17 26 9 14 1022.1 1021.8 0.0
24/06:30am 18.7 17.3 14.4 76 2.5 N 15 22 8 12 1021.8 1021.5 0.0
24/06:00am 18.7 16.3 14.4 76 2.5 N 20 28 11 15 1021.4 1021.1 0.0
24/05:30am 18.6 16.4 14.3 76 2.5 N 19 28 10 15 1021.1 1020.8 0.0
24/05:00am 18.7 17.0 14.6 77 2.4 N 17 24 9 13 1020.9 1020.6 0.0
24/04:30am 18.8 16.4 14.5 76 2.5 N 20 28 11 15 1020.7 1020.4 0.0
24/04:00am 18.9 16.7 14.4 75 2.6 N 19 28 10 15 1020.6 1020.3 0.0
24/03:30am 18.9 17.0 14.2 74 2.7 N 17 24 9 13 1020.8 1020.5 0.0
24/03:00am 18.9 16.7 14.4 75 2.6 N 19 26 10 14 1020.6 1020.3 0.0
24/02:30am 18.9 16.6 14.2 74 2.7 N 19 26 10 14 1020.8 1020.5 0.0
24/02:00am 19.1 17.4 14.6 75 2.6 N 17 22 9 12 1021.2 1020.9 0.0
24/01:30am 19.8 16.7 14.4 71 3.1 N 24 35 13 19 1021.2 1020.9 0.0
24/01:00am 19.8 15.9 14.4 71 3.1 N 28 39 15 21 1021.3 1021.0 0.0
24/12:30am 19.9 16.0 14.5 71 3.2 N 28 37 15 20 1021.5 1021.2 0.0
24/12:00am 20.0 16.5 14.4 70 3.3 N 26 33 14 18 1021.7 1021.4 0.0
 
Date/Time
EDT
Temp
°C
App
Temp
°C
Dew
Point
Rel
Hum
%
Delta-T
°C
Wind Press
QNH
hPa
Press
MSL
hPa
Rain
since 9 am
mm
Dir
 
Spd
km/h
Gust
km/h
Spd
kts
Gust
kts
23/11:30pm 20.0 16.5 14.4 70 3.3 N 26 35 14 19 1021.6 1021.3 0.0
23/11:00pm 20.1 16.5 14.2 69 3.4 N 26 35 14 19 1021.6 1021.3 0.0
23/10:30pm 20.1 16.4 13.8 67 3.6 N 26 35 14 19 1021.5 1021.2 0.0
23/10:00pm 20.2 16.4 13.6 66 3.8 NNE 26 35 14 19 1021.4 1021.1 0.0
23/09:30pm 20.2 16.9 13.9 67 3.6 N 24 32 13 17 1021.3 1021.0 0.0
23/09:00pm 20.2 16.5 13.9 67 3.6 N 26 35 14 19 1020.9 1020.6 0.0
23/08:30pm 20.2 17.0 14.3 69 3.4 N 24 33 13 18 1020.6 1020.3 0.0
23/08:00pm 20.2 16.9 14.1 68 3.5 N 24 35 13 19 1020.5 1020.2 0.0
23/07:30pm 20.3 17.4 14.0 67 3.7 N 22 32 12 17 1020.0 1019.7 0.0
23/07:00pm 20.3 17.2 14.4 69 3.4 N 24 33 13 18 1019.7 1019.4 0.0
23/06:30pm 20.4 16.8 14.1 67 3.7 NNE 26 35 14 19 1019.3 1019.0 0.0
23/06:00pm 20.6 17.3 14.0 66 3.8 NNE 24 35 13 19 1019.1 1018.8 0.0
23/05:30pm 20.9 17.4 13.4 62 4.3 NNE 24 37 13 20 1018.8 1018.5 0.0
23/05:00pm 21.1 17.6 13.5 62 4.4 NNE 24 33 13 18 1018.4 1018.1 0.0
23/04:30pm 21.2 17.3 13.4 61 4.5 NNE 26 39 14 21 1018.2 1017.9 0.0
23/04:00pm 21.6 17.3 13.2 59 4.8 NNE 28 39 15 21 1018.0 1017.7 0.0
23/03:30pm 21.6 17.6 13.0 58 4.9 NNE 26 33 14 18 1018.1 1017.8 0.0
23/03:00pm 21.8 18.2 13.2 58 4.9 NNE 24 33 13 18 1018.3 1018.0 0.0
23/02:30pm 22.0 18.7 13.9 60 4.7 NNE 24 32 13 17 1018.7 1018.4 0.0
23/02:00pm 22.0 18.7 13.9 60 4.7 NNE 24 32 13 17 1019.2 1018.9 0.0
23/01:30pm 22.2 19.2 13.8 59 4.9 NNE 22 35 12 19 1019.6 1019.3 0.0
23/01:00pm 22.2 19.5 13.5 57 5.0 NNE 20 30 11 16 1020.1 1019.8 0.0
23/12:30pm 22.3 18.7 13.1 56 5.3 NNE 24 35 13 19 1020.6 1020.3 0.0
23/12:00pm 22.2 18.8 12.5 54 5.5 NNE 22 35 12 19 1021.0 1020.7 0.0
23/11:30am 22.0 19.0 12.5 54 5.4 NNE 20 28 11 15 1021.5 1021.2 0.0

Other Formats:

Comma delimited format used in spreadsheet applications
http://www.bom.gov.au/fwo/IDN60801/IDN60801.94599.axf

JavaScript Object Notation format (JSON) in row-major order
http://www.bom.gov.au/fwo/IDN60801/IDN60801.94599.json